sensor_id;sensor_type;location;lat;lon;timestamp;P1;durP1;ratioP1;P2;durP2;ratioP2
41568;SDS011;27283;52.504;13.358;2024-03-23T00:56:45;31.77;;;4.78;;
41568;SDS011;27283;52.504;13.358;2024-03-23T00:59:13;30.03;;;5.00;;
41568;SDS011;27283;52.504;13.358;2024-03-23T01:01:41;30.90;;;4.70;;
41568;SDS011;27283;52.504;13.358;2024-03-23T01:04:09;39.95;;;5.32;;
41568;SDS011;27283;52.504;13.358;2024-03-23T01:06:37;26.65;;;5.60;;
41568;SDS011;27283;52.504;13.358;2024-03-23T01:09:08;32.88;;;5.20;;
41568;SDS011;27283;52.504;13.358;2024-03-23T01:11:36;30.48;;;5.53;;
41568;SDS011;27283;52.504;13.358;2024-03-23T01:14:05;46.03;;;5.97;;
41568;SDS011;27283;52.504;13.358;2024-03-23T01:16:33;37.17;;;5.43;;
41568;SDS011;27283;52.504;13.358;2024-03-23T01:19:01;38.47;;;6.53;;
41568;SDS011;27283;52.504;13.358;2024-03-23T01:21:29;33.72;;;5.95;;
41568;SDS011;27283;52.504;13.358;2024-03-23T01:23:57;35.70;;;6.90;;
41568;SDS011;27283;52.504;13.358;2024-03-23T01:26:28;39.20;;;7.75;;
41568;SDS011;27283;52.504;13.358;2024-03-23T01:28:55;38.92;;;5.53;;
41568;SDS011;27283;52.504;13.358;2024-03-23T01:31:23;35.53;;;5.85;;
41568;SDS011;27283;52.504;13.358;2024-03-23T01:33:51;31.60;;;5.93;;
41568;SDS011;27283;52.504;13.358;2024-03-23T01:36:20;38.33;;;6.40;;
41568;SDS011;27283;52.504;13.358;2024-03-23T01:38:47;40.30;;;7.05;;
41568;SDS011;27283;52.504;13.358;2024-03-23T01:41:15;29.40;;;6.22;;
41568;SDS011;27283;52.504;13.358;2024-03-23T01:43:46;34.47;;;6.50;;
41568;SDS011;27283;52.504;13.358;2024-03-23T01:46:14;32.92;;;5.72;;
41568;SDS011;27283;52.504;13.358;2024-03-23T01:48:41;33.78;;;5.38;;
41568;SDS011;27283;52.504;13.358;2024-03-23T01:51:10;35.40;;;6.32;;
41568;SDS011;27283;52.504;13.358;2024-03-23T01:53:38;46.28;;;5.75;;
41568;SDS011;27283;52.504;13.358;2024-03-23T01:56:06;36.53;;;6.60;;
41568;SDS011;27283;52.504;13.358;2024-03-23T01:58:34;41.65;;;6.28;;
41568;SDS011;27283;52.504;13.358;2024-03-23T02:01:05;48.58;;;7.45;;
41568;SDS011;27283;52.504;13.358;2024-03-23T02:03:32;35.47;;;5.88;;
41568;SDS011;27283;52.504;13.358;2024-03-23T02:06:01;33.83;;;5.33;;
41568;SDS011;27283;52.504;13.358;2024-03-23T02:08:36;43.65;;;8.15;;
41568;SDS011;27283;52.504;13.358;2024-03-23T02:11:05;48.40;;;6.50;;
41568;SDS011;27283;52.504;13.358;2024-03-23T02:13:32;36.92;;;5.45;;
41568;SDS011;27283;52.504;13.358;2024-03-23T02:16:01;34.80;;;5.27;;
41568;SDS011;27283;52.504;13.358;2024-03-23T02:18:31;36.83;;;5.60;;
41568;SDS011;27283;52.504;13.358;2024-03-23T02:20:59;43.17;;;6.25;;
41568;SDS011;27283;52.504;13.358;2024-03-23T02:23:30;41.58;;;6.90;;
41568;SDS011;27283;52.504;13.358;2024-03-23T02:25:58;44.78;;;6.75;;
41568;SDS011;27283;52.504;13.358;2024-03-23T02:28:25;43.15;;;7.45;;
41568;SDS011;27283;52.504;13.358;2024-03-23T02:30:53;38.65;;;6.32;;
41568;SDS011;27283;52.504;13.358;2024-03-23T02:33:20;35.28;;;6.03;;
41568;SDS011;27283;52.504;13.358;2024-03-23T02:35:48;39.08;;;6.38;;
41568;SDS011;27283;52.504;13.358;2024-03-23T02:38:16;45.92;;;6.40;;
41568;SDS011;27283;52.504;13.358;2024-03-23T02:40:46;41.22;;;7.43;;
41568;SDS011;27283;52.504;13.358;2024-03-23T02:43:14;30.90;;;7.18;;
41568;SDS011;27283;52.504;13.358;2024-03-23T02:45:41;57.30;;;8.80;;
41568;SDS011;27283;52.504;13.358;2024-03-23T02:48:09;49.03;;;7.82;;
41568;SDS011;27283;52.504;13.358;2024-03-23T02:50:37;47.83;;;8.70;;
41568;SDS011;27283;52.504;13.358;2024-03-23T02:53:04;48.20;;;9.05;;
41568;SDS011;27283;52.504;13.358;2024-03-23T02:55:32;48.75;;;8.13;;
41568;SDS011;27283;52.504;13.358;2024-03-23T02:58:02;45.28;;;8.18;;
41568;SDS011;27283;52.504;13.358;2024-03-23T03:00:30;37.08;;;7.97;;
41568;SDS011;27283;52.504;13.358;2024-03-23T03:02:58;51.45;;;11.00;;
41568;SDS011;27283;52.504;13.358;2024-03-23T03:05:25;42.05;;;6.80;;
41568;SDS011;27283;52.504;13.358;2024-03-23T03:07:53;44.78;;;9.73;;
41568;SDS011;27283;52.504;13.358;2024-03-23T03:10:21;34.67;;;7.20;;
41568;SDS011;27283;52.504;13.358;2024-03-23T03:12:48;52.75;;;10.93;;
41568;SDS011;27283;52.504;13.358;2024-03-23T03:15:19;40.77;;;9.07;;
41568;SDS011;27283;52.504;13.358;2024-03-23T03:17:46;38.80;;;8.07;;
41568;SDS011;27283;52.504;13.358;2024-03-23T03:20:14;34.53;;;7.15;;
41568;SDS011;27283;52.504;13.358;2024-03-23T03:22:44;35.13;;;6.43;;
41568;SDS011;27283;52.504;13.358;2024-03-23T03:25:12;34.33;;;6.60;;
41568;SDS011;27283;52.504;13.358;2024-03-23T03:27:40;31.23;;;6.65;;
41568;SDS011;27283;52.504;13.358;2024-03-23T03:30:08;41.17;;;7.22;;
41568;SDS011;27283;52.504;13.358;2024-03-23T03:32:39;38.20;;;7.27;;
41568;SDS011;27283;52.504;13.358;2024-03-23T03:35:07;38.75;;;7.88;;
41568;SDS011;27283;52.504;13.358;2024-03-23T03:37:34;37.40;;;8.17;;
41568;SDS011;27283;52.504;13.358;2024-03-23T03:40:03;33.10;;;7.07;;
41568;SDS011;27283;52.504;13.358;2024-03-23T03:42:30;36.45;;;6.82;;
41568;SDS011;27283;52.504;13.358;2024-03-23T03:44:58;43.30;;;11.25;;
41568;SDS011;27283;52.504;13.358;2024-03-23T03:47:26;38.53;;;7.28;;
41568;SDS011;27283;52.504;13.358;2024-03-23T03:49:56;34.10;;;7.80;;
41568;SDS011;27283;52.504;13.358;2024-03-23T03:52:24;43.37;;;7.30;;
41568;SDS011;27283;52.504;13.358;2024-03-23T03:54:55;33.97;;;6.43;;
41568;SDS011;27283;52.504;13.358;2024-03-23T03:57:29;34.07;;;7.40;;
41568;SDS011;27283;52.504;13.358;2024-03-23T03:59:57;37.75;;;6.13;;
41568;SDS011;27283;52.504;13.358;2024-03-23T04:02:24;26.27;;;5.47;;
41568;SDS011;27283;52.504;13.358;2024-03-23T04:04:56;32.93;;;6.30;;
41568;SDS011;27283;52.504;13.358;2024-03-23T04:07:23;26.70;;;6.10;;
41568;SDS011;27283;52.504;13.358;2024-03-23T04:09:51;37.57;;;6.80;;
41568;SDS011;27283;52.504;13.358;2024-03-23T04:12:19;24.33;;;5.18;;
41568;SDS011;27283;52.504;13.358;2024-03-23T04:14:56;24.23;;;5.10;;
41568;SDS011;27283;52.504;13.358;2024-03-23T04:17:23;27.03;;;6.73;;
41568;SDS011;27283;52.504;13.358;2024-03-23T04:19:52;29.03;;;5.10;;
41568;SDS011;27283;52.504;13.358;2024-03-23T04:22:22;27.03;;;4.57;;
41568;SDS011;27283;52.504;13.358;2024-03-23T04:24:51;22.63;;;3.87;;
41568;SDS011;27283;52.504;13.358;2024-03-23T04:27:19;17.67;;;2.87;;
41568;SDS011;27283;52.504;13.358;2024-03-23T04:29:47;12.25;;;2.97;;
41568;SDS011;27283;52.504;13.358;2024-03-23T04:32:16;15.53;;;2.83;;
41568;SDS011;27283;52.504;13.358;2024-03-23T04:34:44;15.40;;;2.57;;
41568;SDS011;27283;52.504;13.358;2024-03-23T04:37:12;17.83;;;3.07;;
41568;SDS011;27283;52.504;13.358;2024-03-23T04:42:44;16.07;;;2.43;;
41568;SDS011;27283;52.504;13.358;2024-03-23T04:45:12;16.17;;;2.80;;
41568;SDS011;27283;52.504;13.358;2024-03-23T04:47:40;18.80;;;3.45;;
41568;SDS011;27283;52.504;13.358;2024-03-23T04:50:09;24.97;;;3.83;;
41568;SDS011;27283;52.504;13.358;2024-03-23T04:52:37;16.80;;;3.03;;
41568;SDS011;27283;52.504;13.358;2024-03-23T04:55:05;26.80;;;3.33;;
41568;SDS011;27283;52.504;13.358;2024-03-23T04:57:33;18.80;;;3.33;;
41568;SDS011;27283;52.504;13.358;2024-03-23T05:00:05;30.40;;;7.60;;
41568;SDS011;27283;52.504;13.358;2024-03-23T05:02:35;16.73;;;3.37;;
41568;SDS011;27283;52.504;13.358;2024-03-23T05:05:04;22.33;;;4.20;;
41568;SDS011;27283;52.504;13.358;2024-03-23T05:07:33;21.20;;;3.70;;
41568;SDS011;27283;52.504;13.358;2024-03-23T05:10:01;17.03;;;3.90;;
41568;SDS011;27283;52.504;13.358;2024-03-23T05:12:29;13.80;;;3.60;;
41568;SDS011;27283;52.504;13.358;2024-03-23T05:14:57;19.67;;;4.10;;
41568;SDS011;27283;52.504;13.358;2024-03-23T05:17:27;33.53;;;5.60;;
41568;SDS011;27283;52.504;13.358;2024-03-23T05:19:55;25.97;;;5.33;;
41568;SDS011;27283;52.504;13.358;2024-03-23T05:22:23;23.27;;;5.53;;
41568;SDS011;27283;52.504;13.358;2024-03-23T05:24:50;24.43;;;4.93;;
41568;SDS011;27283;52.504;13.358;2024-03-23T05:27:18;23.02;;;5.55;;
41568;SDS011;27283;52.504;13.358;2024-03-23T05:29:46;38.93;;;6.40;;
41568;SDS011;27283;52.504;13.358;2024-03-23T05:32:13;33.43;;;4.93;;
41568;SDS011;27283;52.504;13.358;2024-03-23T05:34:44;33.30;;;8.43;;
41568;SDS011;27283;52.504;13.358;2024-03-23T05:37:11;32.37;;;5.87;;
41568;SDS011;27283;52.504;13.358;2024-03-23T05:39:39;28.97;;;5.50;;
41568;SDS011;27283;52.504;13.358;2024-03-23T05:42:07;32.90;;;6.50;;
41568;SDS011;27283;52.504;13.358;2024-03-23T05:44:35;27.63;;;6.30;;
41568;SDS011;27283;52.504;13.358;2024-03-23T05:47:02;29.10;;;6.47;;
41568;SDS011;27283;52.504;13.358;2024-03-23T05:49:30;28.80;;;6.33;;
41568;SDS011;27283;52.504;13.358;2024-03-23T05:52:00;28.60;;;6.17;;
41568;SDS011;27283;52.504;13.358;2024-03-23T05:54:29;28.27;;;5.40;;
41568;SDS011;27283;52.504;13.358;2024-03-23T05:56:56;34.00;;;6.07;;
41568;SDS011;27283;52.504;13.358;2024-03-23T05:59:24;31.63;;;6.10;;
41568;SDS011;27283;52.504;13.358;2024-03-23T06:01:52;26.83;;;5.90;;
41568;SDS011;27283;52.504;13.358;2024-03-23T06:04:19;21.97;;;5.83;;
41568;SDS011;27283;52.504;13.358;2024-03-23T06:06:47;33.73;;;5.40;;
41568;SDS011;27283;52.504;13.358;2024-03-23T06:09:18;32.20;;;4.20;;
41568;SDS011;27283;52.504;13.358;2024-03-23T06:11:46;19.73;;;4.00;;
41568;SDS011;27283;52.504;13.358;2024-03-23T06:14:14;26.37;;;4.93;;
41568;SDS011;27283;52.504;13.358;2024-03-23T06:16:41;24.43;;;4.30;;
41568;SDS011;27283;52.504;13.358;2024-03-23T06:19:09;25.27;;;4.67;;
41568;SDS011;27283;52.504;13.358;2024-03-23T06:21:36;23.40;;;4.10;;
41568;SDS011;27283;52.504;13.358;2024-03-23T06:24:22;24.87;;;4.50;;
41568;SDS011;27283;52.504;13.358;2024-03-23T06:26:50;23.27;;;4.73;;
41568;SDS011;27283;52.504;13.358;2024-03-23T06:29:17;28.20;;;4.73;;
41568;SDS011;27283;52.504;13.358;2024-03-23T06:31:51;17.77;;;3.83;;
41568;SDS011;27283;52.504;13.358;2024-03-23T06:34:20;14.48;;;3.22;;
41568;SDS011;27283;52.504;13.358;2024-03-23T06:36:48;18.07;;;3.43;;
41568;SDS011;27283;52.504;13.358;2024-03-23T06:39:16;13.77;;;3.10;;
41568;SDS011;27283;52.504;13.358;2024-03-23T06:41:51;19.30;;;3.40;;
41568;SDS011;27283;52.504;13.358;2024-03-23T06:44:19;12.57;;;3.10;;
41568;SDS011;27283;52.504;13.358;2024-03-23T06:46:47;17.87;;;3.47;;
41568;SDS011;27283;52.504;13.358;2024-03-23T06:49:15;14.83;;;3.37;;
41568;SDS011;27283;52.504;13.358;2024-03-23T06:51:43;15.27;;;3.17;;
41568;SDS011;27283;52.504;13.358;2024-03-23T06:54:12;15.13;;;3.50;;
41568;SDS011;27283;52.504;13.358;2024-03-23T06:56:40;19.03;;;3.33;;
41568;SDS011;27283;52.504;13.358;2024-03-23T06:59:10;17.73;;;3.17;;
41568;SDS011;27283;52.504;13.358;2024-03-23T07:01:38;23.67;;;3.57;;
41568;SDS011;27283;52.504;13.358;2024-03-23T07:04:05;19.27;;;3.73;;
41568;SDS011;27283;52.504;13.358;2024-03-23T07:06:33;11.57;;;3.20;;
41568;SDS011;27283;52.504;13.358;2024-03-23T07:09:01;17.07;;;3.37;;
41568;SDS011;27283;52.504;13.358;2024-03-23T07:11:29;14.83;;;3.17;;
41568;SDS011;27283;52.504;13.358;2024-03-23T07:13:56;17.93;;;3.67;;
41568;SDS011;27283;52.504;13.358;2024-03-23T07:16:27;19.57;;;3.40;;
41568;SDS011;27283;52.504;13.358;2024-03-23T07:18:54;15.47;;;3.90;;
41568;SDS011;27283;52.504;13.358;2024-03-23T07:21:23;22.33;;;3.70;;
41568;SDS011;27283;52.504;13.358;2024-03-23T07:23:51;16.20;;;3.20;;
41568;SDS011;27283;52.504;13.358;2024-03-23T07:26:19;16.43;;;4.40;;
41568;SDS011;27283;52.504;13.358;2024-03-23T07:28:46;14.57;;;3.23;;
41568;SDS011;27283;52.504;13.358;2024-03-23T07:31:15;15.83;;;3.67;;
41568;SDS011;27283;52.504;13.358;2024-03-23T07:33:45;18.23;;;4.13;;
41568;SDS011;27283;52.504;13.358;2024-03-23T07:36:16;18.20;;;3.57;;
41568;SDS011;27283;52.504;13.358;2024-03-23T07:38:43;17.40;;;3.08;;
41568;SDS011;27283;52.504;13.358;2024-03-23T07:41:14;11.70;;;2.87;;
41568;SDS011;27283;52.504;13.358;2024-03-23T07:43:43;15.25;;;2.67;;
41568;SDS011;27283;52.504;13.358;2024-03-23T07:46:42;12.55;;;2.67;;
41568;SDS011;27283;52.504;13.358;2024-03-23T07:49:13;18.80;;;3.07;;
41568;SDS011;27283;52.504;13.358;2024-03-23T07:51:41;14.03;;;3.20;;
41568;SDS011;27283;52.504;13.358;2024-03-23T07:54:09;13.63;;;2.93;;
41568;SDS011;27283;52.504;13.358;2024-03-23T07:56:37;15.90;;;3.40;;
41568;SDS011;27283;52.504;13.358;2024-03-23T07:59:05;17.90;;;3.40;;
41568;SDS011;27283;52.504;13.358;2024-03-23T08:01:33;15.10;;;3.20;;
41568;SDS011;27283;52.504;13.358;2024-03-23T08:04:01;11.80;;;3.33;;
41568;SDS011;27283;52.504;13.358;2024-03-23T08:06:31;15.73;;;3.17;;
41568;SDS011;27283;52.504;13.358;2024-03-23T08:09:00;15.30;;;3.43;;
41568;SDS011;27283;52.504;13.358;2024-03-23T08:11:27;19.27;;;3.73;;
41568;SDS011;27283;52.504;13.358;2024-03-23T08:13:57;17.80;;;3.67;;
41568;SDS011;27283;52.504;13.358;2024-03-23T08:16:25;15.43;;;3.43;;
41568;SDS011;27283;52.504;13.358;2024-03-23T08:18:53;16.83;;;2.60;;
41568;SDS011;27283;52.504;13.358;2024-03-23T08:21:22;15.50;;;2.70;;
41568;SDS011;27283;52.504;13.358;2024-03-23T08:23:53;15.00;;;2.80;;
41568;SDS011;27283;52.504;13.358;2024-03-23T08:26:20;13.93;;;3.60;;
41568;SDS011;27283;52.504;13.358;2024-03-23T08:28:49;12.37;;;2.97;;
41568;SDS011;27283;52.504;13.358;2024-03-23T08:31:16;16.33;;;3.87;;
41568;SDS011;27283;52.504;13.358;2024-03-23T08:33:44;16.10;;;4.13;;
41568;SDS011;27283;52.504;13.358;2024-03-23T08:36:12;20.60;;;3.93;;
41568;SDS011;27283;52.504;13.358;2024-03-23T08:38:40;19.30;;;4.27;;
41568;SDS011;27283;52.504;13.358;2024-03-23T08:41:11;20.20;;;3.73;;
41568;SDS011;27283;52.504;13.358;2024-03-23T08:43:40;18.70;;;3.53;;
41568;SDS011;27283;52.504;13.358;2024-03-23T08:46:08;19.60;;;3.37;;
41568;SDS011;27283;52.504;13.358;2024-03-23T08:48:38;19.90;;;3.90;;
41568;SDS011;27283;52.504;13.358;2024-03-23T08:51:07;20.93;;;3.50;;
41568;SDS011;27283;52.504;13.358;2024-03-23T08:53:36;22.57;;;3.73;;
41568;SDS011;27283;52.504;13.358;2024-03-23T08:56:05;17.43;;;3.70;;
41568;SDS011;27283;52.504;13.358;2024-03-23T08:58:36;19.97;;;3.80;;
41568;SDS011;27283;52.504;13.358;2024-03-23T09:01:06;17.60;;;4.00;;
41568;SDS011;27283;52.504;13.358;2024-03-23T09:03:35;13.80;;;3.17;;
41568;SDS011;27283;52.504;13.358;2024-03-23T09:06:06;11.10;;;3.00;;
41568;SDS011;27283;52.504;13.358;2024-03-23T09:08:35;13.00;;;2.50;;
41568;SDS011;27283;52.504;13.358;2024-03-23T09:11:06;12.83;;;2.63;;
41568;SDS011;27283;52.504;13.358;2024-03-23T09:13:37;11.17;;;2.70;;
41568;SDS011;27283;52.504;13.358;2024-03-23T09:16:06;16.83;;;2.80;;
41568;SDS011;27283;52.504;13.358;2024-03-23T09:18:34;15.47;;;2.70;;
41568;SDS011;27283;52.504;13.358;2024-03-23T09:21:02;8.20;;;1.87;;
41568;SDS011;27283;52.504;13.358;2024-03-23T09:23:31;6.80;;;2.00;;
41568;SDS011;27283;52.504;13.358;2024-03-23T09:26:02;7.63;;;1.83;;
41568;SDS011;27283;52.504;13.358;2024-03-23T09:28:30;12.07;;;2.20;;
41568;SDS011;27283;52.504;13.358;2024-03-23T09:31:04;18.03;;;2.40;;
41568;SDS011;27283;52.504;13.358;2024-03-23T09:33:33;16.73;;;2.53;;
41568;SDS011;27283;52.504;13.358;2024-03-23T09:36:02;19.10;;;3.00;;
41568;SDS011;27283;52.504;13.358;2024-03-23T09:38:30;13.00;;;2.50;;
41568;SDS011;27283;52.504;13.358;2024-03-23T09:40:58;12.27;;;2.43;;
41568;SDS011;27283;52.504;13.358;2024-03-23T09:43:27;14.17;;;2.67;;
41568;SDS011;27283;52.504;13.358;2024-03-23T09:45:54;13.70;;;3.27;;
41568;SDS011;27283;52.504;13.358;2024-03-23T09:48:24;12.40;;;2.87;;
41568;SDS011;27283;52.504;13.358;2024-03-23T09:50:52;15.00;;;2.90;;
41568;SDS011;27283;52.504;13.358;2024-03-23T09:53:19;11.13;;;2.40;;
41568;SDS011;27283;52.504;13.358;2024-03-23T09:55:47;11.90;;;3.23;;
41568;SDS011;27283;52.504;13.358;2024-03-23T09:58:16;16.67;;;3.00;;
41568;SDS011;27283;52.504;13.358;2024-03-23T10:00:52;15.33;;;3.10;;
41568;SDS011;27283;52.504;13.358;2024-03-23T10:03:20;15.90;;;3.93;;
41568;SDS011;27283;52.504;13.358;2024-03-23T10:05:58;22.23;;;4.30;;
41568;SDS011;27283;52.504;13.358;2024-03-23T10:08:28;18.47;;;3.40;;
41568;SDS011;27283;52.504;13.358;2024-03-23T10:10:56;19.27;;;3.33;;
41568;SDS011;27283;52.504;13.358;2024-03-23T10:13:24;17.83;;;3.47;;
41568;SDS011;27283;52.504;13.358;2024-03-23T10:15:56;14.73;;;3.00;;
41568;SDS011;27283;52.504;13.358;2024-03-23T10:18:26;13.10;;;3.13;;
41568;SDS011;27283;52.504;13.358;2024-03-23T10:21:09;11.10;;;2.73;;
41568;SDS011;27283;52.504;13.358;2024-03-23T10:23:42;14.10;;;2.60;;
41568;SDS011;27283;52.504;13.358;2024-03-23T10:26:15;16.13;;;2.73;;
41568;SDS011;27283;52.504;13.358;2024-03-23T10:29:01;16.17;;;2.50;;
41568;SDS011;27283;52.504;13.358;2024-03-23T10:31:29;12.57;;;2.47;;
41568;SDS011;27283;52.504;13.358;2024-03-23T10:33:58;16.17;;;2.53;;
41568;SDS011;27283;52.504;13.358;2024-03-23T10:36:30;14.43;;;3.17;;
41568;SDS011;27283;52.504;13.358;2024-03-23T10:39:10;18.10;;;3.67;;
41568;SDS011;27283;52.504;13.358;2024-03-23T10:41:41;20.43;;;3.37;;
41568;SDS011;27283;52.504;13.358;2024-03-23T10:44:11;20.17;;;3.10;;
41568;SDS011;27283;52.504;13.358;2024-03-23T18:42:00;8.13;;;2.60;;
41568;SDS011;27283;52.504;13.358;2024-03-23T18:44:29;10.47;;;2.80;;
41568;SDS011;27283;52.504;13.358;2024-03-23T18:46:56;6.93;;;2.07;;
41568;SDS011;27283;52.504;13.358;2024-03-23T18:49:26;8.90;;;2.50;;
41568;SDS011;27283;52.504;13.358;2024-03-23T18:51:54;7.53;;;2.40;;
41568;SDS011;27283;52.504;13.358;2024-03-23T18:54:23;7.47;;;2.93;;
41568;SDS011;27283;52.504;13.358;2024-03-23T18:56:51;8.90;;;2.70;;
41568;SDS011;27283;52.504;13.358;2024-03-23T18:59:21;8.60;;;2.80;;
41568;SDS011;27283;52.504;13.358;2024-03-23T19:01:49;11.60;;;2.80;;
41568;SDS011;27283;52.504;13.358;2024-03-23T19:04:19;11.27;;;2.40;;
41568;SDS011;27283;52.504;13.358;2024-03-23T19:06:47;8.77;;;2.30;;
41568;SDS011;27283;52.504;13.358;2024-03-23T19:09:15;10.57;;;2.40;;
41568;SDS011;27283;52.504;13.358;2024-03-23T19:11:43;10.50;;;2.67;;
41568;SDS011;27283;52.504;13.358;2024-03-23T19:14:11;14.60;;;2.83;;
41568;SDS011;27283;52.504;13.358;2024-03-23T19:16:42;8.37;;;2.77;;
41568;SDS011;27283;52.504;13.358;2024-03-23T19:19:12;6.33;;;2.60;;
41568;SDS011;27283;52.504;13.358;2024-03-23T19:21:40;7.97;;;2.23;;
41568;SDS011;27283;52.504;13.358;2024-03-23T19:24:08;7.30;;;2.40;;
41568;SDS011;27283;52.504;13.358;2024-03-23T19:26:36;7.13;;;2.10;;
41568;SDS011;27283;52.504;13.358;2024-03-23T19:29:04;11.60;;;4.77;;
41568;SDS011;27283;52.504;13.358;2024-03-23T19:31:32;7.10;;;3.00;;
41568;SDS011;27283;52.504;13.358;2024-03-23T19:34:03;7.17;;;2.20;;
41568;SDS011;27283;52.504;13.358;2024-03-23T19:36:31;6.23;;;2.20;;
41568;SDS011;27283;52.504;13.358;2024-03-23T19:38:59;8.27;;;2.50;;
41568;SDS011;27283;52.504;13.358;2024-03-23T19:41:31;6.80;;;2.20;;
41568;SDS011;27283;52.504;13.358;2024-03-23T19:43:59;16.40;;;4.53;;
41568;SDS011;27283;52.504;13.358;2024-03-23T19:46:31;7.07;;;2.60;;
41568;SDS011;27283;52.504;13.358;2024-03-23T19:49:06;11.63;;;3.50;;
41568;SDS011;27283;52.504;13.358;2024-03-23T19:51:35;14.07;;;6.03;;
41568;SDS011;27283;52.504;13.358;2024-03-23T19:54:04;32.83;;;14.97;;
41568;SDS011;27283;52.504;13.358;2024-03-23T19:56:33;13.23;;;5.13;;
41568;SDS011;27283;52.504;13.358;2024-03-23T19:59:03;20.17;;;8.70;;
41568;SDS011;27283;52.504;13.358;2024-03-23T20:01:31;25.30;;;11.40;;
41568;SDS011;27283;52.504;13.358;2024-03-23T20:04:00;10.07;;;4.83;;
41568;SDS011;27283;52.504;13.358;2024-03-23T20:06:32;25.20;;;10.07;;
41568;SDS011;27283;52.504;13.358;2024-03-23T20:09:01;15.63;;;6.00;;
41568;SDS011;27283;52.504;13.358;2024-03-23T20:11:30;10.20;;;4.23;;
41568;SDS011;27283;52.504;13.358;2024-03-23T20:13:59;12.47;;;4.77;;
41568;SDS011;27283;52.504;13.358;2024-03-23T20:16:28;20.93;;;8.20;;
41568;SDS011;27283;52.504;13.358;2024-03-23T20:18:57;18.23;;;7.20;;
41568;SDS011;27283;52.504;13.358;2024-03-23T20:21:25;16.63;;;6.53;;
41568;SDS011;27283;52.504;13.358;2024-03-23T20:23:57;13.00;;;6.10;;
41568;SDS011;27283;52.504;13.358;2024-03-23T20:26:26;15.23;;;5.47;;
41568;SDS011;27283;52.504;13.358;2024-03-23T20:28:55;20.17;;;8.57;;
41568;SDS011;27283;52.504;13.358;2024-03-23T20:31:23;14.87;;;4.33;;
41568;SDS011;27283;52.504;13.358;2024-03-23T20:33:53;6.93;;;3.63;;
41568;SDS011;27283;52.504;13.358;2024-03-23T20:36:30;36.40;;;14.73;;
41568;SDS011;27283;52.504;13.358;2024-03-23T20:39:02;25.97;;;11.03;;
41568;SDS011;27283;52.504;13.358;2024-03-23T20:41:32;10.13;;;4.10;;
41568;SDS011;27283;52.504;13.358;2024-03-23T20:44:01;13.73;;;5.73;;
41568;SDS011;27283;52.504;13.358;2024-03-23T20:46:30;11.13;;;5.47;;
41568;SDS011;27283;52.504;13.358;2024-03-23T20:48:59;21.63;;;9.70;;
41568;SDS011;27283;52.504;13.358;2024-03-23T20:51:27;19.40;;;8.33;;
41568;SDS011;27283;52.504;13.358;2024-03-23T20:53:57;13.63;;;6.30;;
41568;SDS011;27283;52.504;13.358;2024-03-23T20:56:29;29.90;;;11.37;;
41568;SDS011;27283;52.504;13.358;2024-03-23T20:58:57;18.47;;;7.57;;
41568;SDS011;27283;52.504;13.358;2024-03-23T21:01:25;38.93;;;15.90;;
41568;SDS011;27283;52.504;13.358;2024-03-23T21:03:52;18.33;;;7.13;;
41568;SDS011;27283;52.504;13.358;2024-03-23T21:06:20;20.13;;;7.77;;
41568;SDS011;27283;52.504;13.358;2024-03-23T21:08:48;20.67;;;7.63;;
41568;SDS011;27283;52.504;13.358;2024-03-23T21:11:15;34.57;;;15.10;;
41568;SDS011;27283;52.504;13.358;2024-03-23T21:13:46;20.57;;;8.57;;
41568;SDS011;27283;52.504;13.358;2024-03-23T21:16:16;23.40;;;10.37;;
41568;SDS011;27283;52.504;13.358;2024-03-23T21:18:44;17.80;;;8.30;;
41568;SDS011;27283;52.504;13.358;2024-03-23T21:21:11;21.63;;;9.23;;
41568;SDS011;27283;52.504;13.358;2024-03-23T21:23:39;20.93;;;8.23;;
41568;SDS011;27283;52.504;13.358;2024-03-23T21:26:07;20.13;;;8.97;;
41568;SDS011;27283;52.504;13.358;2024-03-23T21:28:35;15.87;;;7.33;;
41568;SDS011;27283;52.504;13.358;2024-03-23T21:31:05;10.27;;;4.93;;
41568;SDS011;27283;52.504;13.358;2024-03-23T21:33:33;12.43;;;5.90;;
41568;SDS011;27283;52.504;13.358;2024-03-23T21:36:01;12.37;;;5.90;;
41568;SDS011;27283;52.504;13.358;2024-03-23T21:38:29;13.27;;;6.27;;
41568;SDS011;27283;52.504;13.358;2024-03-23T21:40:58;39.80;;;16.43;;
41568;SDS011;27283;52.504;13.358;2024-03-23T21:43:27;15.47;;;6.80;;
41568;SDS011;27283;52.504;13.358;2024-03-23T21:45:55;15.97;;;7.23;;
41568;SDS011;27283;52.504;13.358;2024-03-23T21:48:42;27.10;;;10.87;;
41568;SDS011;27283;52.504;13.358;2024-03-23T21:51:09;36.40;;;14.40;;
41568;SDS011;27283;52.504;13.358;2024-03-23T21:53:42;15.27;;;6.40;;
41568;SDS011;27283;52.504;13.358;2024-03-23T21:56:10;22.47;;;9.33;;
41568;SDS011;27283;52.504;13.358;2024-03-23T21:58:38;35.13;;;15.17;;
41568;SDS011;27283;52.504;13.358;2024-03-23T22:01:05;38.60;;;17.13;;
41568;SDS011;27283;52.504;13.358;2024-03-23T22:03:35;16.53;;;7.27;;
41568;SDS011;27283;52.504;13.358;2024-03-23T22:06:07;20.73;;;9.57;;
41568;SDS011;27283;52.504;13.358;2024-03-23T22:08:35;17.20;;;7.37;;
41568;SDS011;27283;52.504;13.358;2024-03-23T22:11:10;32.37;;;13.20;;
41568;SDS011;27283;52.504;13.358;2024-03-23T22:13:38;23.07;;;10.00;;
41568;SDS011;27283;52.504;13.358;2024-03-23T22:16:06;34.10;;;14.57;;
41568;SDS011;27283;52.504;13.358;2024-03-23T22:18:34;62.83;;;27.23;;
41568;SDS011;27283;52.504;13.358;2024-03-23T22:21:01;41.47;;;18.47;;
41568;SDS011;27283;52.504;13.358;2024-03-23T22:23:32;65.33;;;28.00;;
41568;SDS011;27283;52.504;13.358;2024-03-23T22:26:00;32.10;;;13.37;;
41568;SDS011;27283;52.504;13.358;2024-03-23T22:28:29;15.23;;;7.20;;
41568;SDS011;27283;52.504;13.358;2024-03-23T22:30:57;16.90;;;7.37;;
41568;SDS011;27283;52.504;13.358;2024-03-23T22:33:26;15.23;;;6.40;;
41568;SDS011;27283;52.504;13.358;2024-03-23T22:35:54;30.73;;;12.00;;
41568;SDS011;27283;52.504;13.358;2024-03-23T22:38:22;17.13;;;6.97;;
41568;SDS011;27283;52.504;13.358;2024-03-23T22:40:56;16.30;;;7.20;;
41568;SDS011;27283;52.504;13.358;2024-03-23T22:43:25;31.80;;;13.17;;
41568;SDS011;27283;52.504;13.358;2024-03-23T22:45:54;17.10;;;6.87;;
41568;SDS011;27283;52.504;13.358;2024-03-23T22:48:23;17.27;;;7.70;;
41568;SDS011;27283;52.504;13.358;2024-03-23T22:50:52;16.43;;;6.97;;
41568;SDS011;27283;52.504;13.358;2024-03-23T22:53:20;19.77;;;7.93;;
41568;SDS011;27283;52.504;13.358;2024-03-23T22:55:49;19.30;;;8.40;;
41568;SDS011;27283;52.504;13.358;2024-03-23T22:58:21;31.63;;;11.60;;
41568;SDS011;27283;52.504;13.358;2024-03-23T23:00:49;26.60;;;10.77;;
41568;SDS011;27283;52.504;13.358;2024-03-23T23:03:21;21.13;;;8.43;;
41568;SDS011;27283;52.504;13.358;2024-03-23T23:05:59;14.87;;;7.23;;
41568;SDS011;27283;52.504;13.358;2024-03-23T23:08:29;14.17;;;5.77;;
41568;SDS011;27283;52.504;13.358;2024-03-23T23:10:56;17.53;;;7.37;;
41568;SDS011;27283;52.504;13.358;2024-03-23T23:13:27;30.40;;;10.87;;
41568;SDS011;27283;52.504;13.358;2024-03-23T23:15:55;31.07;;;13.30;;
41568;SDS011;27283;52.504;13.358;2024-03-23T23:18:24;20.40;;;8.10;;
41568;SDS011;27283;52.504;13.358;2024-03-23T23:20:52;18.53;;;8.10;;
41568;SDS011;27283;52.504;13.358;2024-03-23T23:23:20;15.70;;;6.83;;
41568;SDS011;27283;52.504;13.358;2024-03-23T23:25:48;24.67;;;10.67;;